Time;durP1;ratioP1;P1;durP2;ratioP2;P2;SDS_P1;SDS_P2;PMS_P1;PMS_P2;Temp;Humidity;BMP_temperature;BMP_pressure;BME280_temperature;BME280_humidity;BME280_pressure;Samples;Min_cycle;Max_cycle;Signal;HPM_P1;HPM_P2
2022/12/31 00:01:04;;;;;;;;;;;17.20;87.40;;;;;;5058335;28;19916;-90
2022/12/31 00:03:30;;;;;;;;;;;17.20;87.40;;;;;;5059284;28;20059;-90
2022/12/31 00:05:56;;;;;;;;;;;17.20;87.60;;;;;;5059681;28;20316;-90
2022/12/31 00:08:21;;;;;;;;;;;17.20;87.80;;;;;;5058862;28;19968;-90
2022/12/31 00:10:47;;;;;;;;;;;17.20;87.80;;;;;;5058257;28;19913;-91
2022/12/31 00:13:13;;;;;;;;;;;17.20;88.00;;;;;;5058804;28;19916;-90
2022/12/31 00:15:39;;;;;;;;;;;17.20;88.20;;;;;;5057403;28;19909;-91
2022/12/31 00:18:05;;;;;;;;;;;17.20;88.60;;;;;;5057559;28;19932;-90
2022/12/31 00:20:31;;;;;;;;;;;17.10;88.90;;;;;;5057526;28;19947;-90
2022/12/31 00:22:56;;;;;;;;;;;17.10;89.00;;;;;;5057994;28;19944;-91
2022/12/31 00:25:22;;;;;;;;;;;17.10;89.40;;;;;;5058124;28;19919;-90
2022/12/31 00:27:48;;;;;;;;;;;17.10;89.80;;;;;;5058296;28;19908;-91
2022/12/31 00:30:13;;;;;;;;;;;17.10;90.00;;;;;;5059122;28;19912;-92
2022/12/31 00:32:39;;;;;;;;;;;17.00;90.00;;;;;;5060539;28;20189;-92
2022/12/31 00:35:05;;;;;;;;;;;17.00;90.10;;;;;;5061263;28;19909;-92
2022/12/31 00:37:30;;;;;;;;;;;17.00;90.30;;;;;;5062925;28;19961;-91
2022/12/31 00:39:56;;;;;;;;;;;17.00;90.40;;;;;;5065506;28;19974;-92
2022/12/31 00:42:22;;;;;;;;;;;17.00;90.40;;;;;;5070462;28;19909;-92
2022/12/31 00:44:53;;;;;;;;;;;17.00;90.60;;;;;;5069845;28;20006;-92
2022/12/31 00:47:18;;;;;;;;;;;16.90;90.60;;;;;;5070697;28;19908;-92
2022/12/31 00:49:44;;;;;;;;;;;16.90;90.80;;;;;;5067979;28;19923;-93
2022/12/31 00:52:12;;;;;;;;;;;16.90;90.80;;;;;;5066544;28;19909;-93
2022/12/31 00:54:39;;;;;;;;;;;16.90;91.00;;;;;;5064505;28;19920;-92
2022/12/31 00:57:05;;;;;;;;;;;16.90;91.10;;;;;;5064919;28;19919;-93
2022/12/31 00:59:30;;;;;;;;;;;16.90;91.20;;;;;;5067753;28;19908;-93
2022/12/31 01:01:58;;;;;;;;;;;16.80;91.30;;;;;;5070660;28;19912;-93
2022/12/31 01:04:25;;;;;;;;;;;16.80;91.40;;;;;;5069607;28;19931;-93
2022/12/31 01:06:50;;;;;;;;;;;16.80;91.50;;;;;;5066902;28;19916;-93
2022/12/31 01:09:16;;;;;;;;;;;16.80;91.70;;;;;;5072116;28;19966;-92
2022/12/31 01:11:51;;;;;;;;;;;16.80;91.80;;;;;;5073112;28;19917;-93
2022/12/31 01:14:17;;;;;;;;;;;16.70;91.80;;;;;;5067576;28;20206;-93
2022/12/31 01:16:44;;;;;;;;;;;16.70;92.00;;;;;;5062876;28;19913;-92
2022/12/31 01:19:12;;;;;;;;;;;16.70;92.10;;;;;;5060355;28;20010;-92
2022/12/31 01:21:38;;;;;;;;;;;16.70;92.30;;;;;;5060017;28;19916;-93
2022/12/31 01:24:04;;;;;;;;;;;16.70;92.40;;;;;;5061317;28;20224;-92
2022/12/31 01:26:30;;;;;;;;;;;16.60;92.50;;;;;;5058554;28;20285;-93
2022/12/31 01:28:58;;;;;;;;;;;16.60;92.50;;;;;;5060123;28;19909;-92
2022/12/31 01:31:24;;;;;;;;;;;16.60;92.60;;;;;;5057394;28;19927;-92
2022/12/31 01:33:50;;;;;;;;;;;16.60;92.80;;;;;;5057788;28;19916;-92
2022/12/31 01:36:23;;;;;;;;;;;16.60;92.90;;;;;;5058014;28;19916;-92
2022/12/31 01:38:49;;;;;;;;;;;16.60;93.10;;;;;;5058088;28;19955;-92
2022/12/31 01:41:16;;;;;;;;;;;16.50;93.20;;;;;;5060657;28;19920;-92
2022/12/31 01:43:45;;;;;;;;;;;16.50;93.20;;;;;;5062088;28;19994;-92
2022/12/31 01:46:12;;;;;;;;;;;16.60;93.30;;;;;;5059329;28;19916;-92
2022/12/31 01:48:38;;;;;;;;;;;16.50;93.40;;;;;;5060579;28;19919;-92
2022/12/31 01:51:06;;;;;;;;;;;16.50;93.50;;;;;;5059231;28;19912;-92
2022/12/31 01:53:32;;;;;;;;;;;16.50;93.60;;;;;;5060213;28;19908;-92
2022/12/31 01:55:58;;;;;;;;;;;16.50;93.70;;;;;;5061372;28;19920;-92
2022/12/31 01:58:27;;;;;;;;;;;16.50;93.70;;;;;;5059755;28;20180;-92
2022/12/31 02:00:53;;;;;;;;;;;16.50;93.90;;;;;;5058357;28;19909;-92
2022/12/31 02:03:20;;;;;;;;;;;16.40;94.00;;;;;;5059184;28;19938;-92
2022/12/31 02:06:06;;;;;;;;;;;16.40;94.00;;;;;;5057665;28;20274;-93
2022/12/31 02:08:32;;;;;;;;;;;16.40;94.20;;;;;;5056103;28;19917;-93
2022/12/31 02:10:58;;;;;;;;;;;16.40;94.20;;;;;;5060786;28;19920;-92
2022/12/31 02:13:24;;;;;;;;;;;16.40;94.40;;;;;;5059890;28;20039;-92
2022/12/31 02:16:10;;;;;;;;;;;16.40;94.40;;;;;;5059864;28;19998;-92
2022/12/31 02:18:49;;;;;;;;;;;16.40;94.50;;;;;;5059634;28;19969;-90
2022/12/31 02:21:35;;;;;;;;;;;16.40;94.60;;;;;;5059972;28;19912;-92
2022/12/31 02:24:09;;;;;;;;;;;16.40;94.90;;;;;;5060386;28;19917;-92
2022/12/31 02:26:52;;;;;;;;;;;16.30;94.90;;;;;;5060432;28;19916;-92
2022/12/31 02:29:30;;;;;;;;;;;16.30;95.10;;;;;;5059327;28;19931;-92
2022/12/31 02:32:06;;;;;;;;;;;16.30;95.30;;;;;;5057811;28;19919;-91
2022/12/31 02:34:51;;;;;;;;;;;16.30;95.30;;;;;;5058299;28;19939;-91
2022/12/31 02:37:18;;;;;;;;;;;16.30;95.50;;;;;;5059005;28;20003;-91
2022/12/31 02:39:45;;;;;;;;;;;16.30;95.60;;;;;;5067277;28;20257;-92
2022/12/31 02:42:11;;;;;;;;;;;16.30;95.70;;;;;;5058954;28;20304;-91
2022/12/31 02:44:37;;;;;;;;;;;16.30;95.80;;;;;;5058202;28;19908;-91
2022/12/31 02:47:22;;;;;;;;;;;16.30;95.80;;;;;;5059958;28;19909;-92
2022/12/31 02:49:54;;;;;;;;;;;16.30;95.80;;;;;;5093845;28;20010;-91
2022/12/31 02:52:33;;;;;;;;;;;16.30;95.90;;;;;;5060767;28;19966;-92
2022/12/31 02:54:59;;;;;;;;;;;16.30;96.00;;;;;;5059984;28;20003;-92
2022/12/31 02:57:37;;;;;;;;;;;16.30;96.10;;;;;;5059040;28;19970;-92
2022/12/31 03:02:49;;;;;;;;;;;16.30;96.30;;;;;;5073704;28;19986;-92
2022/12/31 03:05:16;;;;;;;;;;;16.30;96.30;;;;;;5055678;28;20356;-91
2022/12/31 03:07:43;;;;;;;;;;;16.30;96.50;;;;;;5058804;28;20189;-92
2022/12/31 03:10:09;;;;;;;;;;;16.30;96.50;;;;;;5058560;28;19920;-91
2022/12/31 03:12:47;;;;;;;;;;;16.30;96.60;;;;;;5057790;28;19908;-92
2022/12/31 03:15:18;;;;;;;;;;;16.30;96.70;;;;;;5059497;28;20202;-92
2022/12/31 03:17:48;;;;;;;;;;;16.30;96.80;;;;;;5058523;28;20007;-92
2022/12/31 03:22:58;;;;;;;;;;;16.30;97.00;;;;;;5076055;28;20225;-93
2022/12/31 03:28:04;;;;;;;;;;;16.30;97.00;;;;;;5076090;28;20266;-92
2022/12/31 03:30:30;;;;;;;;;;;16.30;97.10;;;;;;5061230;28;19912;-92
2022/12/31 03:32:57;;;;;;;;;;;16.30;97.10;;;;;;5064438;28;19912;-92
2022/12/31 03:35:23;;;;;;;;;;;16.30;97.40;;;;;;5064919;28;20197;-92
2022/12/31 03:37:50;;;;;;;;;;;16.30;97.40;;;;;;5065439;28;20221;-93
2022/12/31 03:40:16;;;;;;;;;;;16.30;97.60;;;;;;5064494;28;19909;-92
2022/12/31 03:42:43;;;;;;;;;;;16.30;97.50;;;;;;5062637;28;19909;-92
2022/12/31 03:45:09;;;;;;;;;;;16.30;97.60;;;;;;5063217;28;19948;-92
2022/12/31 03:47:35;;;;;;;;;;;16.30;97.70;;;;;;5063828;28;19909;-93
2022/12/31 03:50:01;;;;;;;;;;;16.30;97.90;;;;;;5064533;28;19912;-93
2022/12/31 03:52:26;;;;;;;;;;;16.30;98.00;;;;;;5063006;28;19908;-91
2022/12/31 03:54:52;;;;;;;;;;;16.30;98.00;;;;;;5062634;28;20003;-91
2022/12/31 03:57:17;;;;;;;;;;;16.30;98.10;;;;;;5063206;28;20274;-92
2022/12/31 03:59:43;;;;;;;;;;;16.30;98.10;;;;;;5062341;28;20027;-91
2022/12/31 04:02:09;;;;;;;;;;;16.30;98.20;;;;;;5062066;28;19921;-92
2022/12/31 04:04:34;;;;;;;;;;;16.30;98.50;;;;;;5062056;28;19974;-91
2022/12/31 04:07:00;;;;;;;;;;;16.30;98.50;;;;;;5062332;28;19916;-92
2022/12/31 04:09:26;;;;;;;;;;;16.30;98.40;;;;;;5060563;28;19916;-91
2022/12/31 04:11:51;;;;;;;;;;;16.30;98.60;;;;;;5060972;28;19935;-91
2022/12/31 04:14:17;;;;;;;;;;;16.30;98.70;;;;;;5058984;28;19908;-91
2022/12/31 04:16:43;;;;;;;;;;;16.30;98.70;;;;;;5058212;28;19909;-91
2022/12/31 04:19:10;;;;;;;;;;;16.30;98.80;;;;;;5058116;28;19913;-90
2022/12/31 04:21:35;;;;;;;;;;;16.30;98.90;;;;;;5059584;28;19935;-91
2022/12/31 04:24:01;;;;;;;;;;;16.40;99.10;;;;;;5060852;28;20194;-91
2022/12/31 04:26:27;;;;;;;;;;;16.30;99.10;;;;;;5060769;28;19924;-91
2022/12/31 04:28:52;;;;;;;;;;;16.40;99.10;;;;;;5060631;28;20429;-91
2022/12/31 04:31:18;;;;;;;;;;;16.40;99.20;;;;;;5062069;28;19908;-90
2022/12/31 04:33:43;;;;;;;;;;;16.40;99.50;;;;;;5061119;28;19920;-89
2022/12/31 04:36:09;;;;;;;;;;;16.40;99.40;;;;;;5061094;28;19913;-91
2022/12/31 04:38:35;;;;;;;;;;;16.40;99.50;;;;;;5061630;28;19923;-90
2022/12/31 04:41:16;;;;;;;;;;;16.40;99.60;;;;;;5059558;28;19989;-91
2022/12/31 04:43:51;;;;;;;;;;;16.40;99.60;;;;;;5058883;28;19908;-91
2022/12/31 04:46:18;;;;;;;;;;;16.40;99.60;;;;;;5060214;28;19913;-92
2022/12/31 04:48:44;;;;;;;;;;;16.40;99.70;;;;;;5059280;28;20285;-90
2022/12/31 04:51:09;;;;;;;;;;;16.40;99.70;;;;;;5058926;28;19916;-92
2022/12/31 04:53:36;;;;;;;;;;;16.40;99.70;;;;;;5058910;28;19935;-91
2022/12/31 04:56:01;;;;;;;;;;;16.40;99.80;;;;;;5057320;28;20160;-91
2022/12/31 04:58:27;;;;;;;;;;;16.40;99.80;;;;;;5091967;28;19951;-91
2022/12/31 05:00:54;;;;;;;;;;;16.40;99.80;;;;;;5059102;28;20286;-91
2022/12/31 05:03:20;;;;;;;;;;;16.40;99.90;;;;;;5060335;28;20282;-90
2022/12/31 05:05:46;;;;;;;;;;;16.40;99.90;;;;;;5061663;28;19955;-90
2022/12/31 05:08:12;;;;;;;;;;;16.40;99.90;;;;;;5060782;28;19912;-90
2022/12/31 05:10:42;;;;;;;;;;;16.40;99.90;;;;;;5060849;28;19913;-89
2022/12/31 05:13:07;;;;;;;;;;;16.40;99.90;;;;;;5061178;28;19913;-90
2022/12/31 05:15:33;;;;;;;;;;;16.40;99.90;;;;;;5077834;28;19908;-90
2022/12/31 05:17:58;;;;;;;;;;;16.40;99.90;;;;;;5060823;28;19909;-90
2022/12/31 05:20:24;;;;;;;;;;;16.40;99.90;;;;;;5060612;28;19951;-89
2022/12/31 05:22:50;;;;;;;;;;;16.40;99.90;;;;;;5061599;28;19974;-90
2022/12/31 05:25:15;;;;;;;;;;;16.40;99.90;;;;;;5060807;28;19919;-91
2022/12/31 05:27:41;;;;;;;;;;;16.40;99.90;;;;;;5060792;28;19969;-90
2022/12/31 05:30:07;;;;;;;;;;;16.40;99.90;;;;;;5058533;28;19995;-91
2022/12/31 05:32:33;;;;;;;;;;;16.40;99.90;;;;;;5059930;28;19916;-91
2022/12/31 05:34:58;;;;;;;;;;;16.40;99.90;;;;;;5060016;28;19973;-90
2022/12/31 05:37:24;;;;;;;;;;;16.40;99.90;;;;;;5059723;28;20286;-90
2022/12/31 05:39:50;;;;;;;;;;;16.40;99.90;;;;;;5059125;28;19908;-90
2022/12/31 05:42:16;;;;;;;;;;;16.40;99.90;;;;;;5059234;28;19931;-89
2022/12/31 05:44:41;;;;;;;;;;;16.40;99.90;;;;;;5058227;28;19913;-90
2022/12/31 05:47:07;;;;;;;;;;;16.80;99.90;;;;;;5058131;28;19978;-90
2022/12/31 05:49:33;;;;;;;;;;;17.50;99.30;;;;;;5059133;28;19913;-88
2022/12/31 05:51:58;;;;;;;;;;;18.20;97.60;;;;;;5059297;28;19909;-89
2022/12/31 05:54:24;;;;;;;;;;;18.50;96.40;;;;;;5057029;28;20007;-89
2022/12/31 05:56:49;;;;;;;;;;;18.70;95.80;;;;;;5074402;28;20150;-89
2022/12/31 05:59:15;;;;;;;;;;;18.90;95.20;;;;;;5059689;28;20011;-88
2022/12/31 06:01:41;;;;;;;;;;;19.10;94.80;;;;;;5062464;28;19996;-89
2022/12/31 06:04:06;;;;;;;;;;;19.10;94.40;;;;;;5057527;28;19952;-90
2022/12/31 06:06:32;;;;;;;;;;;19.20;94.30;;;;;;5056170;28;19962;-87
2022/12/31 06:08:58;;;;;;;;;;;19.30;94.00;;;;;;5056478;28;19940;-88
2022/12/31 06:11:23;;;;;;;;;;;19.40;93.80;;;;;;5056355;28;19908;-89
2022/12/31 06:13:49;;;;;;;;;;;19.40;93.80;;;;;;5055472;28;19909;-89
2022/12/31 06:16:14;;;;;;;;;;;19.40;93.70;;;;;;5054507;28;19909;-89
2022/12/31 06:18:40;;;;;;;;;;;19.40;93.80;;;;;;5054855;28;19915;-91
2022/12/31 06:21:06;;;;;;;;;;;19.30;94.00;;;;;;5072644;28;19908;-89
2022/12/31 06:23:31;;;;;;;;;;;19.20;94.10;;;;;;5072101;28;19946;-89
2022/12/31 06:26:00;;;;;;;;;;;19.20;94.40;;;;;;5054687;28;19912;-89
2022/12/31 06:28:26;;;;;;;;;;;19.10;94.60;;;;;;5056138;28;19919;-89
2022/12/31 06:30:57;;;;;;;;;;;19.00;94.80;;;;;;5072745;28;19913;-88
2022/12/31 06:33:23;;;;;;;;;;;19.00;95.00;;;;;;5053948;28;19974;-89
2022/12/31 06:35:48;;;;;;;;;;;18.90;95.40;;;;;;5053865;28;20179;-89
2022/12/31 06:38:14;;;;;;;;;;;18.80;95.70;;;;;;5054613;28;19908;-89
2022/12/31 06:40:39;;;;;;;;;;;18.70;96.00;;;;;;5055630;28;20189;-89
2022/12/31 06:43:05;;;;;;;;;;;18.60;96.30;;;;;;5055700;28;19927;-89
2022/12/31 06:45:31;;;;;;;;;;;18.50;96.70;;;;;;5056447;28;19926;-89
2022/12/31 06:47:59;;;;;;;;;;;18.40;96.90;;;;;;5056739;28;19985;-89
2022/12/31 06:50:25;;;;;;;;;;;18.30;97.20;;;;;;5055827;28;20218;-88
2022/12/31 06:52:50;;;;;;;;;;;18.20;97.40;;;;;;5056232;28;20003;-90
2022/12/31 06:55:16;;;;;;;;;;;18.20;97.70;;;;;;5056944;28;19940;-89
2022/12/31 06:57:42;;;;;;;;;;;18.10;97.90;;;;;;5057430;28;19948;-88
2022/12/31 07:00:09;;;;;;;;;;;18.00;98.10;;;;;;5057042;28;19917;-89
2022/12/31 07:02:47;;;;;;;;;;;18.00;98.30;;;;;;5074163;28;19916;-88
2022/12/31 07:05:12;;;;;;;;;;;17.90;98.60;;;;;;5055545;28;19909;-89
2022/12/31 07:07:57;;;;;;;;;;;17.90;98.80;;;;;;5054817;28;19919;-89
2022/12/31 07:10:22;;;;;;;;;;;17.80;99.00;;;;;;5073529;28;19920;-88
2022/12/31 07:13:04;;;;;;;;;;;17.80;99.20;;;;;;5056907;28;20293;-89
2022/12/31 07:15:44;;;;;;;;;;;17.70;99.50;;;;;;5053690;28;19939;-90
2022/12/31 07:18:28;;;;;;;;;;;17.70;99.70;;;;;;5072192;28;19923;-89
2022/12/31 07:20:54;;;;;;;;;;;17.60;99.90;;;;;;5087580;28;19908;-88
2022/12/31 07:23:20;;;;;;;;;;;17.60;99.90;;;;;;5054050;28;19909;-88
2022/12/31 07:26:07;;;;;;;;;;;17.50;99.90;;;;;;5053416;28;19913;-88
2022/12/31 07:29:02;;;;;;;;;;;17.50;99.90;;;;;;5055594;28;19908;-90
2022/12/31 07:31:47;;;;;;;;;;;17.40;99.90;;;;;;5036970;28;19970;-89
2022/12/31 07:34:12;;;;;;;;;;;17.40;99.90;;;;;;5087634;28;19908;-88
2022/12/31 07:36:49;;;;;;;;;;;17.40;99.90;;;;;;5054749;28;20134;-89
2022/12/31 07:39:22;;;;;;;;;;;17.40;99.90;;;;;;5055282;28;19920;-90
2022/12/31 07:41:53;;;;;;;;;;;17.30;99.90;;;;;;5055688;28;19909;-88
2022/12/31 07:44:22;;;;;;;;;;;17.30;99.90;;;;;;5056179;28;19908;-89
2022/12/31 07:46:50;;;;;;;;;;;17.30;99.90;;;;;;5056109;28;19912;-89
2022/12/31 07:49:16;;;;;;;;;;;17.30;99.90;;;;;;5055693;28;19912;-88
2022/12/31 07:51:42;;;;;;;;;;;17.20;99.90;;;;;;5071573;28;20278;-88
2022/12/31 07:54:08;;;;;;;;;;;17.30;99.90;;;;;;5054250;28;19908;-89
2022/12/31 07:56:33;;;;;;;;;;;17.30;99.90;;;;;;5054319;28;19908;-90
2022/12/31 07:58:59;;;;;;;;;;;17.30;99.90;;;;;;5051518;28;20209;-90
2022/12/31 08:01:45;;;;;;;;;;;17.30;99.90;;;;;;5051442;28;19908;-88
2022/12/31 08:04:13;;;;;;;;;;;17.30;99.90;;;;;;5086671;28;19999;-89
2022/12/31 08:06:51;;;;;;;;;;;17.40;99.90;;;;;;5070270;28;20377;-88
2022/12/31 08:09:20;;;;;;;;;;;17.40;99.90;;;;;;5054448;28;19973;-88
2022/12/31 08:11:54;;;;;;;;;;;17.50;99.90;;;;;;5072554;28;19909;-88
2022/12/31 08:14:19;;;;;;;;;;;17.50;99.90;;;;;;5052809;28;19909;-88
2022/12/31 08:16:45;;;;;;;;;;;17.50;99.90;;;;;;5053509;28;20278;-89
2022/12/31 08:19:21;;;;;;;;;;;17.60;99.90;;;;;;5057681;28;19908;-88
2022/12/31 08:21:52;;;;;;;;;;;17.60;99.90;;;;;;5059146;28;19916;-88
2022/12/31 08:24:38;;;;;;;;;;;17.60;99.90;;;;;;5057887;28;19908;-89
2022/12/31 08:27:07;;;;;;;;;;;17.70;99.90;;;;;;5074881;28;19917;-88
2022/12/31 08:29:51;;;;;;;;;;;17.70;99.90;;;;;;5056364;28;19917;-89
2022/12/31 08:32:27;;;;;;;;;;;17.70;99.90;;;;;;5090598;28;19912;-89
2022/12/31 08:34:57;;;;;;;;;;;17.70;99.90;;;;;;5056011;28;19974;-89
2022/12/31 08:37:32;;;;;;;;;;;17.70;99.90;;;;;;5055626;28;20048;-89
2022/12/31 08:40:07;;;;;;;;;;;17.60;99.90;;;;;;5057349;28;20159;-89
2022/12/31 08:42:40;;;;;;;;;;;17.60;99.90;;;;;;5058139;28;20029;-89
2022/12/31 08:45:25;;;;;;;;;;;17.60;99.90;;;;;;5056443;28;19999;-89
2022/12/31 08:47:58;;;;;;;;;;;17.60;99.90;;;;;;5090671;28;20378;-88
2022/12/31 08:50:24;;;;;;;;;;;17.60;99.90;;;;;;5054462;28;20266;-88
2022/12/31 08:52:50;;;;;;;;;;;17.60;99.90;;;;;;5068834;28;20258;-89
2022/12/31 08:55:17;;;;;;;;;;;17.50;99.90;;;;;;5070709;28;19909;-88
2022/12/31 08:57:52;;;;;;;;;;;17.50;99.90;;;;;;5053162;28;19909;-89
2022/12/31 09:00:18;;;;;;;;;;;17.60;99.90;;;;;;5055538;28;19913;-89
2022/12/31 09:02:47;;;;;;;;;;;17.60;99.90;;;;;;5055670;28;19917;-90
2022/12/31 09:05:12;;;;;;;;;;;17.60;99.90;;;;;;5071842;28;19948;-90
2022/12/31 09:07:39;;;;;;;;;;;17.50;99.90;;;;;;5057776;28;19951;-90
2022/12/31 09:10:25;;;;;;;;;;;17.50;99.90;;;;;;5054471;28;20034;-90
2022/12/31 09:12:51;;;;;;;;;;;17.50;99.90;;;;;;5054015;28;19908;-87
2022/12/31 09:15:24;;;;;;;;;;;17.50;99.90;;;;;;5050834;28;19915;-87
2022/12/31 09:17:51;;;;;;;;;;;17.50;99.90;;;;;;5077743;28;20148;-88
2022/12/31 09:20:21;;;;;;;;;;;17.50;99.90;;;;;;5053320;28;19939;-90
2022/12/31 09:22:48;;;;;;;;;;;17.50;99.90;;;;;;5056363;28;20007;-89
2022/12/31 09:25:15;;;;;;;;;;;17.50;99.90;;;;;;5053139;28;19909;-90
2022/12/31 09:27:50;;;;;;;;;;;17.50;99.90;;;;;;5051697;28;20344;-90
2022/12/31 09:30:16;;;;;;;;;;;17.40;99.90;;;;;;5052925;28;19918;-91
2022/12/31 09:33:07;;;;;;;;;;;17.40;99.90;;;;;;5074738;28;19916;-90
2022/12/31 09:35:50;;;;;;;;;;;17.40;99.90;;;;;;5062480;28;19989;-91
2022/12/31 09:38:22;;;;;;;;;;;17.40;99.90;;;;;;5053704;28;20266;-91
2022/12/31 09:40:56;;;;;;;;;;;17.40;99.90;;;;;;5057398;28;19917;-92
2022/12/31 09:43:22;;;;;;;;;;;17.40;99.90;;;;;;5052942;28;19919;-88
2022/12/31 09:46:06;;;;;;;;;;;17.40;99.90;;;;;;5052811;28;20151;-89
2022/12/31 09:48:32;;;;;;;;;;;17.40;99.90;;;;;;5085818;28;19909;-89
2022/12/31 09:51:16;;;;;;;;;;;17.40;99.90;;;;;;5052285;28;19966;-91
2022/12/31 09:54:00;;;;;;;;;;;17.40;99.90;;;;;;5050552;28;20186;-90
2022/12/31 09:56:28;;;;;;;;;;;17.40;99.90;;;;;;5083720;28;20261;-90
2022/12/31 09:58:57;;;;;;;;;;;17.40;99.90;;;;;;5051895;28;20380;-90
2022/12/31 10:01:33;;;;;;;;;;;17.40;99.90;;;;;;5051913;28;19978;-89
2022/12/31 10:03:59;;;;;;;;;;;17.40;99.90;;;;;;5050421;28;20047;-90
2022/12/31 10:06:31;;;;;;;;;;;17.40;99.90;;;;;;5051197;28;19909;-90
2022/12/31 10:09:09;;;;;;;;;;;17.40;99.90;;;;;;5069484;28;19908;-91
2022/12/31 10:11:37;;;;;;;;;;;17.40;99.90;;;;;;5050942;28;20202;-92
2022/12/31 10:14:09;;;;;;;;;;;17.40;99.90;;;;;;5053624;28;19912;-89
2022/12/31 10:16:50;;;;;;;;;;;17.40;99.90;;;;;;5052841;28;19959;-90
2022/12/31 10:19:16;;;;;;;;;;;17.40;99.90;;;;;;5050555;28;19918;-90
2022/12/31 10:22:00;;;;;;;;;;;17.40;99.90;;;;;;5050530;28;19908;-89
2022/12/31 10:24:44;;;;;;;;;;;17.40;99.90;;;;;;5083856;28;19916;-88
2022/12/31 10:27:29;;;;;;;;;;;17.40;99.90;;;;;;5083911;28;19955;-88
2022/12/31 10:29:57;;;;;;;;;;;17.30;99.90;;;;;;5084146;28;20277;-88
2022/12/31 10:32:23;;;;;;;;;;;17.30;99.90;;;;;;5049962;28;20012;-89
2022/12/31 10:35:07;;;;;;;;;;;17.40;99.90;;;;;;5050840;28;19919;-89
2022/12/31 10:37:38;;;;;;;;;;;17.30;99.90;;;;;;5083482;28;20286;-88
2022/12/31 10:40:04;;;;;;;;;;;17.40;99.90;;;;;;5049545;28;19983;-89
2022/12/31 10:42:48;;;;;;;;;;;17.50;99.90;;;;;;5068225;28;19962;-88
2022/12/31 10:45:16;;;;;;;;;;;17.50;99.90;;;;;;5085587;28;19909;-89
2022/12/31 10:48:01;;;;;;;;;;;17.60;99.90;;;;;;5049877;28;19935;-89
2022/12/31 10:50:36;;;;;;;;;;;17.60;99.90;;;;;;5082395;28;19997;-89
2022/12/31 10:53:01;;;;;;;;;;;17.60;99.90;;;;;;5066593;28;19908;-90
2022/12/31 10:55:27;;;;;;;;;;;17.60;99.90;;;;;;5050711;28;20174;-90
2022/12/31 10:58:09;;;;;;;;;;;17.70;99.90;;;;;;5049848;28;19972;-89
2022/12/31 11:00:58;;;;;;;;;;;17.70;99.90;;;;;;5069035;28;20270;-89
2022/12/31 11:03:23;;;;;;;;;;;17.80;99.90;;;;;;5066869;28;19916;-90
2022/12/31 11:06:17;;;;;;;;;;;17.80;99.90;;;;;;5066955;28;19919;-89
2022/12/31 11:08:46;;;;;;;;;;;17.90;99.90;;;;;;5051472;28;19909;-91
2022/12/31 11:11:15;;;;;;;;;;;18.00;99.90;;;;;;5049805;28;19919;-89
2022/12/31 11:13:43;;;;;;;;;;;18.00;99.90;;;;;;5050789;28;19908;-90
2022/12/31 11:16:15;;;;;;;;;;;18.10;99.90;;;;;;5070203;28;19919;-91
2022/12/31 11:19:16;;;;;;;;;;;18.10;99.90;;;;;;5049675;28;20163;-90
2022/12/31 11:21:48;;;;;;;;;;;18.20;99.90;;;;;;4963517;28;20336;-90
2022/12/31 11:24:24;;;;;;;;;;;18.30;99.90;;;;;;5030111;28;20270;-90
2022/12/31 11:27:05;;;;;;;;;;;18.30;99.90;;;;;;5048069;28;20191;-90
2022/12/31 11:29:37;;;;;;;;;;;18.30;99.90;;;;;;5047488;28;20009;-90
2022/12/31 11:32:05;;;;;;;;;;;18.30;99.90;;;;;;5050313;28;19920;-90
2022/12/31 11:34:31;;;;;;;;;;;18.20;99.90;;;;;;5050166;28;19908;-91
2022/12/31 11:37:17;;;;;;;;;;;18.20;99.90;;;;;;5051166;28;19913;-90
2022/12/31 11:40:00;;;;;;;;;;;18.20;99.90;;;;;;5053720;28;19909;-89
2022/12/31 11:42:38;;;;;;;;;;;18.10;99.90;;;;;;5087057;28;19909;-90
2022/12/31 11:45:10;;;;;;;;;;;18.10;99.90;;;;;;5058567;28;20050;-89
2022/12/31 11:47:54;;;;;;;;;;;18.00;99.90;;;;;;5053104;28;19909;-89
2022/12/31 11:50:39;;;;;;;;;;;18.00;99.90;;;;;;5083778;28;20270;-89
2022/12/31 11:53:10;;;;;;;;;;;18.00;99.90;;;;;;5082647;28;20107;-88
2022/12/31 11:55:42;;;;;;;;;;;18.00;99.90;;;;;;5050676;28;20304;-89
2022/12/31 11:58:13;;;;;;;;;;;17.90;99.90;;;;;;5050046;28;19955;-89
2022/12/31 12:00:39;;;;;;;;;;;17.90;99.90;;;;;;5051748;28;20133;-90
2022/12/31 12:03:05;;;;;;;;;;;17.80;99.90;;;;;;5052785;28;19923;-90
2022/12/31 12:05:32;;;;;;;;;;;17.80;99.90;;;;;;5052038;28;19940;-91
2022/12/31 12:07:58;;;;;;;;;;;17.80;99.90;;;;;;5053142;28;19908;-89
2022/12/31 12:10:25;;;;;;;;;;;17.80;99.90;;;;;;5070947;28;19916;-90
2022/12/31 12:12:52;;;;;;;;;;;17.80;99.90;;;;;;5071028;28;19915;-90
2022/12/31 12:15:28;;;;;;;;;;;17.70;99.90;;;;;;5052744;28;20254;-90
2022/12/31 12:17:58;;;;;;;;;;;17.70;99.90;;;;;;5052410;28;19960;-91
2022/12/31 12:20:31;;;;;;;;;;;17.70;99.90;;;;;;5052071;28;19909;-90
2022/12/31 12:22:58;;;;;;;;;;;17.70;99.90;;;;;;5051533;28;19912;-90
2022/12/31 12:25:25;;;;;;;;;;;17.60;99.90;;;;;;5052263;28;19912;-90
2022/12/31 12:27:51;;;;;;;;;;;17.60;99.90;;;;;;5051289;28;19998;-90
2022/12/31 12:30:18;;;;;;;;;;;17.60;99.90;;;;;;5052160;28;20333;-89
2022/12/31 12:32:54;;;;;;;;;;;17.60;99.90;;;;;;5052498;28;19982;-90
2022/12/31 12:35:24;;;;;;;;;;;17.60;99.90;;;;;;5069124;28;20204;-91
2022/12/31 12:37:57;;;;;;;;;;;17.60;99.90;;;;;;5069954;28;19912;-90
2022/12/31 12:40:23;;;;;;;;;;;17.50;99.90;;;;;;5051698;28;19908;-90
2022/12/31 12:42:49;;;;;;;;;;;17.50;99.90;;;;;;5053663;28;19923;-91
2022/12/31 12:45:22;;;;;;;;;;;17.50;99.90;;;;;;5069901;28;19908;-90
2022/12/31 12:47:49;;;;;;;;;;;17.50;99.90;;;;;;5050882;28;19909;-91
2022/12/31 12:50:19;;;;;;;;;;;17.50;99.90;;;;;;5052487;28;19912;-91
2022/12/31 12:53:02;;;;;;;;;;;17.50;99.90;;;;;;5049224;28;19966;-91
2022/12/31 12:55:35;;;;;;;;;;;17.50;99.90;;;;;;5048505;28;19908;-91
2022/12/31 12:58:16;;;;;;;;;;;17.50;99.90;;;;;;5051996;28;19908;-91
2022/12/31 13:00:50;;;;;;;;;;;17.50;99.90;;;;;;5051955;28;19916;-91
2022/12/31 13:03:34;;;;;;;;;;;17.50;99.90;;;;;;5053617;28;19973;-92
2022/12/31 13:06:09;;;;;;;;;;;17.50;99.90;;;;;;5086453;28;20379;-91
2022/12/31 13:08:38;;;;;;;;;;;17.40;99.90;;;;;;5053303;28;20182;-91
2022/12/31 13:11:06;;;;;;;;;;;17.40;99.90;;;;;;5053341;28;20021;-91
2022/12/31 13:13:38;;;;;;;;;;;17.50;99.90;;;;;;5052944;28;19965;-91
2022/12/31 13:16:11;;;;;;;;;;;17.50;99.90;;;;;;5051183;28;19908;-92
2022/12/31 13:18:45;;;;;;;;;;;17.40;99.90;;;;;;5053220;28;20037;-92
2022/12/31 13:21:10;;;;;;;;;;;17.50;99.90;;;;;;5071673;28;19913;-90
2022/12/31 13:23:42;;;;;;;;;;;17.50;99.90;;;;;;5053846;28;19909;-90
2022/12/31 13:26:12;;;;;;;;;;;17.50;99.90;;;;;;5053865;28;20012;-90
2022/12/31 13:28:41;;;;;;;;;;;17.50;99.90;;;;;;5054126;28;20236;-90
2022/12/31 13:31:09;;;;;;;;;;;17.50;99.90;;;;;;5054501;28;20286;-90
2022/12/31 13:33:37;;;;;;;;;;;17.50;99.90;;;;;;5055013;28;19916;-91
2022/12/31 13:36:06;;;;;;;;;;;17.50;99.90;;;;;;5054565;28;19995;-91
2022/12/31 13:38:34;;;;;;;;;;;17.50;99.90;;;;;;5053410;28;20083;-90
2022/12/31 13:41:20;;;;;;;;;;;17.60;99.90;;;;;;5052793;28;19908;-91
2022/12/31 13:43:49;;;;;;;;;;;17.60;99.90;;;;;;5039343;28;20014;-91
2022/12/31 13:46:33;;;;;;;;;;;17.60;99.90;;;;;;5053282;28;19908;-90
2022/12/31 13:49:01;;;;;;;;;;;17.60;99.90;;;;;;5086788;28;19951;-90
2022/12/31 13:51:30;;;;;;;;;;;17.60;99.90;;;;;;5051363;28;20198;-92
2022/12/31 13:54:02;;;;;;;;;;;17.60;99.90;;;;;;5051790;28;20155;-90
2022/12/31 13:56:35;;;;;;;;;;;17.60;99.90;;;;;;5050659;28;20145;-90
2022/12/31 13:59:19;;;;;;;;;;;17.60;99.90;;;;;;5068486;28;20218;-91
2022/12/31 14:01:50;;;;;;;;;;;17.50;99.90;;;;;;5068915;28;19927;-90
2022/12/31 14:04:19;;;;;;;;;;;17.50;99.90;;;;;;5067415;28;19935;-92
2022/12/31 14:06:52;;;;;;;;;;;17.50;99.90;;;;;;5069285;28;20277;-90
2022/12/31 14:09:29;;;;;;;;;;;17.50;99.90;;;;;;5051633;28;20048;-90
2022/12/31 14:12:06;;;;;;;;;;;17.50;99.90;;;;;;5053352;28;20026;-90
2022/12/31 14:14:47;;;;;;;;;;;17.60;99.90;;;;;;5051517;28;19916;-89
2022/12/31 14:17:32;;;;;;;;;;;17.60;99.90;;;;;;5051578;28;20007;-90
2022/12/31 14:20:20;;;;;;;;;;;17.70;99.90;;;;;;5084756;28;19934;-89
2022/12/31 14:22:49;;;;;;;;;;;17.80;99.90;;;;;;5069169;28;19909;-90
2022/12/31 14:25:27;;;;;;;;;;;17.80;99.90;;;;;;5051437;28;19909;-91
2022/12/31 14:27:54;;;;;;;;;;;17.90;99.90;;;;;;5083494;28;19908;-88
2022/12/31 14:30:26;;;;;;;;;;;17.90;99.90;;;;;;5051170;28;19930;-88
2022/12/31 14:33:12;;;;;;;;;;;17.90;99.90;;;;;;5050331;28;20029;-88
2022/12/31 14:35:56;;;;;;;;;;;17.80;99.90;;;;;;5051026;28;19953;-88
2022/12/31 14:38:25;;;;;;;;;;;17.90;99.90;;;;;;5051560;28;19916;-88
2022/12/31 14:41:17;;;;;;;;;;;17.80;99.90;;;;;;5049923;28;19991;-88
2022/12/31 14:44:04;;;;;;;;;;;17.80;99.90;;;;;;5051060;28;19908;-88